Sparta, OH

8:32 AM EDT on April 25, 2015 (GMT -0400)
Marion Municipal | | Change Station
CLOSE
Current Station
Airport
Location: Marion,
Elevation: 994 ft
Nearby Weather Stations

Elev 994 ft 40.62 °N, 83.06 °W | Updated 39 minutes ago

Mostly Cloudy
Mostly Cloudy
42 °F
Feels Like 35 °F
N
14
Wind Variable Wind from East
Gusts 23 mph

Today
High -- | Low -- °F
--% Chance of Precip.
Yesterday
High -- | Low -- °F
Precip. -- in
6:38 AM 8:19 PM
Waxing Crescent, 45% visible
Pressure 29.90 in
Visibility 10.0 miles
Clouds Mostly Cloudy 10000 ft
Windchill 35 °F
Dew Point 28 °F
Humidity 58%
Rainfall 0.00 in
Snow Depth Not available.
UV 0 out of 12
Pollen 8.70 out of 12
Air Quality Not available.
Flu Activity Regional
METAR KMNN 251153Z AUTO 10012G20KT 10SM BKN100 06/M02 A2989 RMK AO2 SLP125 T00561022 10089 20056 57009 TSNO

More Conditions Fewer Conditions

Pressure 29.90 in
Visibility 10.0 miles
Clouds Mostly Cloudy 10000 ft
Windchill 35 °F
Dew Point 28 °F
Humidity 58%
Rainfall 0.00 in
Snow Depth Not available.
UV 0 out of 12
Pollen 8.70 out of 12
Air Quality Not available.
Flu Activity Regional
METAR KMNN 251153Z AUTO 10012G20KT 10SM BKN100 06/M02 A2989 RMK AO2 SLP125 T00561022 10089 20056 57009 TSNO

More Conditions Fewer Conditions

10-Day Weather Forecast

Almanac

Astronomy

Apr. 25, 2015 Rise Set
Actual Time
Civil Twilight
Nautical Twilight
Astronomical Twilight
Moon
Length of Visible Light
Length of Day
Tomorrow will be .
, % of the Moon is Illuminated

Today's Extremes

State Highs State Lows

Community

WunderPhotos

Upload Photos

1,816,647 photos uploaded!

WunderBlogs® & News

Nearby

Air Quality

  Air Quality AQ Index Pollutant
Not available.

Snow Depth

Station Depth Elevation

Earthquake Activity

City Distance Mag. Time & Date
Minimum magnitude displayed is 2.5.

Coastal Water Temperatures

Place Temperature

Stations

Nearby Weather Stations

Station Location Temp. Windchill Dew Point Humidity Wind Precip. Elev Updated Type